sensor_id;sensor_type;location;lat;lon;timestamp;pressure;altitude;pressure_sealevel;temperature;humidity
22862;BME280;11598;50.652;6.172;2024-01-30T00:05:23;97520.56;;;6.97;100.00
22862;BME280;11598;50.652;6.172;2024-01-30T00:15:23;97523.94;;;6.99;100.00
22862;BME280;11598;50.652;6.172;2024-01-30T00:25:23;97516.09;;;7.01;100.00
22862;BME280;11598;50.652;6.172;2024-01-30T00:35:24;97510.72;;;7.05;100.00
22862;BME280;11598;50.652;6.172;2024-01-30T00:45:24;97491.59;;;7.09;100.00
22862;BME280;11598;50.652;6.172;2024-01-30T00:55:24;97490.63;;;7.12;100.00
22862;BME280;11598;50.652;6.172;2024-01-30T01:05:25;97489.94;;;7.08;100.00
22862;BME280;11598;50.652;6.172;2024-01-30T01:15:25;97490.00;;;7.07;100.00
22862;BME280;11598;50.652;6.172;2024-01-30T01:25:26;97490.00;;;7.07;100.00
22862;BME280;11598;50.652;6.172;2024-01-30T01:35:26;97484.84;;;7.07;100.00
22862;BME280;11598;50.652;6.172;2024-01-30T01:45:27;97483.16;;;7.06;100.00
22862;BME280;11598;50.652;6.172;2024-01-30T01:55:29;97475.41;;;7.06;100.00
22862;BME280;11598;50.652;6.172;2024-01-30T02:05:30;97479.66;;;7.07;100.00
22862;BME280;11598;50.652;6.172;2024-01-30T02:15:31;97477.22;;;7.04;100.00
22862;BME280;11598;50.652;6.172;2024-01-30T02:25:34;97481.66;;;7.00;100.00
22862;BME280;11598;50.652;6.172;2024-01-30T02:35:35;97477.75;;;6.91;100.00
22862;BME280;11598;50.652;6.172;2024-01-30T02:45:35;97472.84;;;6.85;100.00
22862;BME280;11598;50.652;6.172;2024-01-30T02:55:35;97464.31;;;6.83;100.00
22862;BME280;11598;50.652;6.172;2024-01-30T03:05:36;97445.13;;;6.89;100.00
22862;BME280;11598;50.652;6.172;2024-01-30T03:15:36;97451.16;;;6.89;100.00
22862;BME280;11598;50.652;6.172;2024-01-30T03:25:36;97455.53;;;6.87;100.00
22862;BME280;11598;50.652;6.172;2024-01-30T03:35:37;97461.88;;;6.80;100.00
22862;BME280;11598;50.652;6.172;2024-01-30T03:45:37;97459.69;;;6.71;100.00
22862;BME280;11598;50.652;6.172;2024-01-30T03:55:38;97454.97;;;6.60;100.00
22862;BME280;11598;50.652;6.172;2024-01-30T04:05:39;97452.59;;;6.55;100.00
22862;BME280;11598;50.652;6.172;2024-01-30T04:15:39;97457.06;;;6.52;100.00
22862;BME280;11598;50.652;6.172;2024-01-30T04:25:40;97445.22;;;6.46;100.00
22862;BME280;11598;50.652;6.172;2024-01-30T04:35:40;97434.72;;;6.51;100.00
22862;BME280;11598;50.652;6.172;2024-01-30T04:45:41;97442.34;;;6.54;100.00
22862;BME280;11598;50.652;6.172;2024-01-30T04:55:41;97443.31;;;6.51;100.00
22862;BME280;11598;50.652;6.172;2024-01-30T05:05:42;97449.38;;;6.50;100.00
22862;BME280;11598;50.652;6.172;2024-01-30T05:15:42;97446.59;;;6.55;100.00
22862;BME280;11598;50.652;6.172;2024-01-30T05:25:42;97436.13;;;6.58;100.00
22862;BME280;11598;50.652;6.172;2024-01-30T05:35:43;97431.88;;;6.57;100.00
22862;BME280;11598;50.652;6.172;2024-01-30T05:45:43;97428.28;;;6.61;100.00
22862;BME280;11598;50.652;6.172;2024-01-30T05:55:43;97407.41;;;6.66;100.00
22862;BME280;11598;50.652;6.172;2024-01-30T06:05:44;97407.75;;;6.77;100.00
22862;BME280;11598;50.652;6.172;2024-01-30T06:15:44;97410.47;;;6.94;100.00
22862;BME280;11598;50.652;6.172;2024-01-30T06:25:45;97411.28;;;7.14;100.00
22862;BME280;11598;50.652;6.172;2024-01-30T06:35:45;97405.50;;;7.28;100.00
22862;BME280;11598;50.652;6.172;2024-01-30T06:45:45;97401.88;;;7.32;100.00
22862;BME280;11598;50.652;6.172;2024-01-30T06:55:46;97403.53;;;7.33;100.00
22862;BME280;11598;50.652;6.172;2024-01-30T07:05:47;97406.19;;;7.31;100.00
22862;BME280;11598;50.652;6.172;2024-01-30T07:15:47;97416.47;;;7.33;100.00
22862;BME280;11598;50.652;6.172;2024-01-30T07:25:47;97428.50;;;7.34;100.00
22862;BME280;11598;50.652;6.172;2024-01-30T07:35:52;97439.31;;;7.42;100.00
22862;BME280;11598;50.652;6.172;2024-01-30T07:45:52;97445.03;;;7.49;100.00
22862;BME280;11598;50.652;6.172;2024-01-30T07:55:53;97454.19;;;7.56;100.00
22862;BME280;11598;50.652;6.172;2024-01-30T08:05:53;97451.19;;;7.65;100.00
22862;BME280;11598;50.652;6.172;2024-01-30T08:15:54;97468.91;;;7.73;100.00
22862;BME280;11598;50.652;6.172;2024-01-30T08:25:54;97464.47;;;7.76;100.00
22862;BME280;11598;50.652;6.172;2024-01-30T08:35:55;97471.06;;;7.82;100.00
22862;BME280;11598;50.652;6.172;2024-01-30T08:45:55;97477.69;;;7.88;100.00
22862;BME280;11598;50.652;6.172;2024-01-30T08:55:57;97491.13;;;7.96;100.00
22862;BME280;11598;50.652;6.172;2024-01-30T09:05:59;97513.16;;;8.04;100.00
22862;BME280;11598;50.652;6.172;2024-01-30T09:15:59;97525.50;;;8.17;100.00
22862;BME280;11598;50.652;6.172;2024-01-30T09:26:00;97536.47;;;8.41;100.00
22862;BME280;11598;50.652;6.172;2024-01-30T09:36:00;97540.19;;;8.70;100.00
22862;BME280;11598;50.652;6.172;2024-01-30T09:46:02;97541.72;;;9.09;100.00
22862;BME280;11598;50.652;6.172;2024-01-30T09:56:04;97546.09;;;9.42;100.00
22862;BME280;11598;50.652;6.172;2024-01-30T10:06:06;97547.63;;;9.62;100.00
22862;BME280;11598;50.652;6.172;2024-01-30T10:16:06;97551.69;;;9.83;100.00
22862;BME280;11598;50.652;6.172;2024-01-30T10:26:07;97545.75;;;9.97;100.00
22862;BME280;11598;50.652;6.172;2024-01-30T10:36:08;97538.69;;;9.99;100.00
22862;BME280;11598;50.652;6.172;2024-01-30T10:46:19;97535.84;;;10.04;100.00
22862;BME280;11598;50.652;6.172;2024-01-30T10:56:24;97538.53;;;10.02;100.00
22862;BME280;11598;50.652;6.172;2024-01-30T11:06:25;97541.28;;;9.99;100.00
22862;BME280;11598;50.652;6.172;2024-01-30T11:16:31;97554.13;;;10.02;100.00
22862;BME280;11598;50.652;6.172;2024-01-30T11:26:32;97560.47;;;9.97;100.00
22862;BME280;11598;50.652;6.172;2024-01-30T11:36:34;97555.44;;;9.93;100.00
22862;BME280;11598;50.652;6.172;2024-01-30T11:46:37;97539.44;;;9.85;100.00
22862;BME280;11598;50.652;6.172;2024-01-30T11:56:38;97543.03;;;9.83;100.00
22862;BME280;11598;50.652;6.172;2024-01-30T12:06:41;97537.00;;;9.82;100.00
22862;BME280;11598;50.652;6.172;2024-01-30T12:16:41;97553.31;;;9.68;100.00
22862;BME280;11598;50.652;6.172;2024-01-30T12:26:42;97546.44;;;9.51;100.00
22862;BME280;11598;50.652;6.172;2024-01-30T12:36:43;97546.84;;;9.44;100.00
22862;BME280;11598;50.652;6.172;2024-01-30T12:46:44;97545.66;;;9.34;100.00
22862;BME280;11598;50.652;6.172;2024-01-30T12:56:44;97554.56;;;9.28;100.00
22862;BME280;11598;50.652;6.172;2024-01-30T13:06:44;97555.03;;;9.19;100.00
22862;BME280;11598;50.652;6.172;2024-01-30T13:16:45;97562.22;;;9.14;100.00
22862;BME280;11598;50.652;6.172;2024-01-30T13:26:45;97568.28;;;8.97;100.00
22862;BME280;11598;50.652;6.172;2024-01-30T13:36:46;97567.72;;;8.90;100.00
22862;BME280;11598;50.652;6.172;2024-01-30T13:46:46;97578.72;;;8.78;100.00
22862;BME280;11598;50.652;6.172;2024-01-30T13:56:47;97591.34;;;8.66;100.00
22862;BME280;11598;50.652;6.172;2024-01-30T14:06:47;97578.16;;;8.54;100.00
22862;BME280;11598;50.652;6.172;2024-01-30T14:16:48;97581.94;;;8.46;100.00
22862;BME280;11598;50.652;6.172;2024-01-30T14:26:48;97578.66;;;8.43;100.00
22862;BME280;11598;50.652;6.172;2024-01-30T14:36:48;97598.72;;;8.38;100.00
22862;BME280;11598;50.652;6.172;2024-01-30T14:46:49;97598.03;;;8.34;100.00
22862;BME280;11598;50.652;6.172;2024-01-30T14:56:49;97612.50;;;8.38;100.00
22862;BME280;11598;50.652;6.172;2024-01-30T15:06:50;97625.69;;;8.34;100.00
22862;BME280;11598;50.652;6.172;2024-01-30T15:16:51;97631.22;;;8.26;100.00
22862;BME280;11598;50.652;6.172;2024-01-30T15:26:51;97647.13;;;8.18;100.00
22862;BME280;11598;50.652;6.172;2024-01-30T15:36:52;97657.78;;;8.11;100.00
22862;BME280;11598;50.652;6.172;2024-01-30T15:46:53;97675.44;;;8.02;100.00
22862;BME280;11598;50.652;6.172;2024-01-30T15:56:53;97693.00;;;7.75;100.00
22862;BME280;11598;50.652;6.172;2024-01-30T16:06:53;97705.44;;;7.47;100.00
22862;BME280;11598;50.652;6.172;2024-01-30T16:16:54;97724.41;;;7.25;100.00
22862;BME280;11598;50.652;6.172;2024-01-30T16:26:54;97736.28;;;7.09;100.00
22862;BME280;11598;50.652;6.172;2024-01-30T16:36:54;97744.63;;;6.93;100.00
22862;BME280;11598;50.652;6.172;2024-01-30T16:46:55;97760.59;;;6.81;100.00
22862;BME280;11598;50.652;6.172;2024-01-30T16:56:55;97779.31;;;6.64;100.00
22862;BME280;11598;50.652;6.172;2024-01-30T17:06:56;97797.84;;;6.52;100.00
22862;BME280;11598;50.652;6.172;2024-01-30T17:16:59;97799.94;;;6.42;100.00
22862;BME280;11598;50.652;6.172;2024-01-30T17:27:02;97815.75;;;6.33;100.00
22862;BME280;11598;50.652;6.172;2024-01-30T17:37:03;97825.31;;;6.29;100.00
22862;BME280;11598;50.652;6.172;2024-01-30T17:47:03;97828.97;;;6.24;100.00
22862;BME280;11598;50.652;6.172;2024-01-30T17:57:04;97829.06;;;6.21;100.00
22862;BME280;11598;50.652;6.172;2024-01-30T18:07:05;97838.63;;;6.19;100.00
22862;BME280;11598;50.652;6.172;2024-01-30T18:17:06;97846.44;;;6.16;100.00
22862;BME280;11598;50.652;6.172;2024-01-30T18:27:06;97867.25;;;6.11;100.00
22862;BME280;11598;50.652;6.172;2024-01-30T18:37:07;97860.53;;;6.07;100.00
22862;BME280;11598;50.652;6.172;2024-01-30T18:47:09;97870.13;;;6.02;100.00
22862;BME280;11598;50.652;6.172;2024-01-30T18:57:10;97876.34;;;5.96;100.00
22862;BME280;11598;50.652;6.172;2024-01-30T19:07:10;97895.38;;;5.92;100.00
22862;BME280;11598;50.652;6.172;2024-01-30T19:17:10;97899.78;;;5.88;100.00
22862;BME280;11598;50.652;6.172;2024-01-30T19:27:11;97882.06;;;5.78;100.00
22862;BME280;11598;50.652;6.172;2024-01-30T19:37:11;97894.53;;;5.65;100.00
22862;BME280;11598;50.652;6.172;2024-01-30T19:47:11;97929.06;;;5.59;100.00
22862;BME280;11598;50.652;6.172;2024-01-30T19:57:12;97930.09;;;5.54;100.00
22862;BME280;11598;50.652;6.172;2024-01-30T20:07:12;97930.25;;;5.49;100.00
22862;BME280;11598;50.652;6.172;2024-01-30T20:17:13;97937.41;;;5.39;100.00
22862;BME280;11598;50.652;6.172;2024-01-30T20:27:14;97941.28;;;5.24;100.00
22862;BME280;11598;50.652;6.172;2024-01-30T20:37:14;97953.53;;;5.16;100.00
22862;BME280;11598;50.652;6.172;2024-01-30T20:47:15;97959.59;;;5.15;100.00
22862;BME280;11598;50.652;6.172;2024-01-30T20:57:15;97963.13;;;5.11;100.00
22862;BME280;11598;50.652;6.172;2024-01-30T21:07:15;97977.78;;;5.09;100.00
22862;BME280;11598;50.652;6.172;2024-01-30T21:17:16;97979.56;;;5.07;100.00
22862;BME280;11598;50.652;6.172;2024-01-30T21:27:17;97988.19;;;5.06;100.00
22862;BME280;11598;50.652;6.172;2024-01-30T21:37:17;97988.38;;;4.98;100.00
22862;BME280;11598;50.652;6.172;2024-01-30T21:47:17;97986.81;;;4.94;100.00
22862;BME280;11598;50.652;6.172;2024-01-30T21:57:18;97996.41;;;4.87;100.00
22862;BME280;11598;50.652;6.172;2024-01-30T22:07:18;97992.25;;;4.82;100.00
22862;BME280;11598;50.652;6.172;2024-01-30T22:17:18;98009.44;;;4.81;100.00
22862;BME280;11598;50.652;6.172;2024-01-30T22:27:19;98018.09;;;4.79;100.00
22862;BME280;11598;50.652;6.172;2024-01-30T22:37:20;98016.41;;;4.78;100.00
22862;BME280;11598;50.652;6.172;2024-01-30T22:47:20;98030.22;;;4.75;100.00
22862;BME280;11598;50.652;6.172;2024-01-30T22:57:20;98037.06;;;4.75;100.00
22862;BME280;11598;50.652;6.172;2024-01-30T23:07:21;98044.84;;;4.73;100.00
22862;BME280;11598;50.652;6.172;2024-01-30T23:17:21;98048.31;;;4.72;100.00
22862;BME280;11598;50.652;6.172;2024-01-30T23:27:21;98051.91;;;4.65;100.00
22862;BME280;11598;50.652;6.172;2024-01-30T23:37:22;98056.34;;;4.60;100.00
22862;BME280;11598;50.652;6.172;2024-01-30T23:47:22;98057.28;;;4.56;100.00
22862;BME280;11598;50.652;6.172;2024-01-30T23:57:22;98058.28;;;4.50;100.00
